Map

Track Data

SID SEASON NUMBER BASIN SUBBASIN NAME ISO_TIME NATURE LAT LON WMO_WIND WMO_PRES WMO_AGENCY TRACK_TYPE DIST2LAND LANDFALL IFLAG USA_AGENCY USA_ATCF_ID USA_LAT USA_LON USA_RECORD USA_STATUS USA_WIND USA_PRES USA_SSHS USA_R34_NE USA_R34_SE USA_R34_SW USA_R34_NW USA_R50_NE USA_R50_SE USA_R50_SW USA_R50_NW USA_R64_NE USA_R64_SE USA_R64_SW USA_R64_NW USA_POCI USA_ROCI USA_RMW USA_EYE TOKYO_LAT TOKYO_LON TOKYO_GRADE TOKYO_WIND TOKYO_PRES TOKYO_R50_DIR TOKYO_R50_LONG TOKYO_R50_SHORT TOKYO_R30_DIR TOKYO_R30_LONG TOKYO_R30_SHORT TOKYO_LAND CMA_LAT CMA_LON CMA_CAT CMA_WIND CMA_PRES HKO_LAT HKO_LON HKO_CAT HKO_WIND HKO_PRES NEWDELHI_LAT NEWDELHI_LON NEWDELHI_GRADE NEWDELHI_WIND NEWDELHI_PRES NEWDELHI_CI NEWDELHI_DP NEWDELHI_POCI REUNION_LAT REUNION_LON REUNION_TYPE REUNION_WIND REUNION_PRES REUNION_TNUM REUNION_CI REUNION_RMW REUNION_R34_NE REUNION_R34_SE REUNION_R34_SW REUNION_R34_NW REUNION_R50_NE REUNION_R50_SE REUNION_R50_SW REUNION_R50_NW REUNION_R64_NE REUNION_R64_SE REUNION_R64_SW REUNION_R64_NW BOM_LAT BOM_LON BOM_TYPE BOM_WIND BOM_PRES BOM_TNUM BOM_CI BOM_RMW BOM_R34_NE BOM_R34_SE BOM_R34_SW BOM_R34_NW BOM_R50_NE BOM_R50_SE BOM_R50_SW BOM_R50_NW BOM_R64_NE BOM_R64_SE BOM_R64_SW BOM_R64_NW BOM_ROCI BOM_POCI BOM_EYE BOM_POS_METHOD BOM_PRES_METHOD NADI_LAT NADI_LON NADI_CAT NADI_WIND NADI_PRES WELLINGTON_LAT WELLINGTON_LON WELLINGTON_WIND WELLINGTON_PRES DS824_LAT DS824_LON DS824_STAGE DS824_WIND DS824_PRES TD9636_LAT TD9636_LON TD9636_STAGE TD9636_WIND TD9636_PRES TD9635_LAT TD9635_LON TD9635_WIND TD9635_PRES TD9635_ROCI NEUMANN_LAT NEUMANN_LON NEUMANN_CLASS NEUMANN_WIND NEUMANN_PRES MLC_LAT MLC_LON MLC_CLASS MLC_WIND MLC_PRES USA_GUST BOM_GUST BOM_GUST_PER REUNION_GUST REUNION_GUST_PER USA_SEAHGT USA_SEARAD_NE USA_SEARAD_SE USA_SEARAD_SW USA_SEARAD_NW STORM_SPEED STORM_DIR
1931316N12281 1931 55 NA CS NOT_NAMED 1931-11-11 12:00:00 TS 11.5000 -79.0000 30 hurdat_atl main 224 224 O_____________ hurdat_atl AL121931 11.5000 -79.0000 TD 30 -1 3 271
1931316N12281 1931 55 NA CS NOT_NAMED 1931-11-11 15:00:00 TS 11.5025 -79.1600 main 224 224 P_____________ AL121931 11.5025 -79.1600 TD 30 -1 3 270
1931316N12281 1931 55 NA CS NOT_NAMED 1931-11-11 18:00:00 TS 11.5000 -79.3000 30 hurdat_atl main 224 224 O_____________ hurdat_atl AL121931 11.5000 -79.3000 TD 30 -1 2 268
1931316N12281 1931 55 NA CS NOT_NAMED 1931-11-11 21:00:00 TS 11.4925 -79.4075 main 224 224 P_____________ AL121931 11.4925 -79.4075 TD 30 -1 2 270
1931316N12281 1931 55 NA CS NOT_NAMED 1931-11-12 00:00:00 TS 11.5000 -79.5000 30 hurdat_atl main 224 224 O_____________ hurdat_atl AL121931 11.5000 -79.5000 TD 30 -1 2 285
1931316N12281 1931 55 NA CS NOT_NAMED 1931-11-12 03:00:00 TS 11.5425 -79.5925 main 224 224 P_____________ AL121931 11.5425 -79.5925 TD 30 -1 2 297
1931316N12281 1931 55 NA CS NOT_NAMED 1931-11-12 06:00:00 TS 11.6000 -79.7000 30 hurdat_atl main 235 235 O_____________ hurdat_atl AL121931 11.6000 -79.7000 TD 30 -1 3 293
1931316N12281 1931 55 NA CS NOT_NAMED 1931-11-12 09:00:00 TS 11.6500 -79.8500 main 246 246 P_____________ AL121931 11.6500 -79.8500 TD 30 -1 3 289
1931316N12281 1931 55 NA CS NOT_NAMED 1931-11-12 12:00:00 TS 11.7000 -80.0000 30 hurdat_atl main 248 248 O_____________ hurdat_atl AL121931 11.7000 -80.0000 TD 30 -1 3 291
1931316N12281 1931 55 NA CS NOT_NAMED 1931-11-12 15:00:00 TS 11.7425 -80.1000 main 250 250 P_____________ AL121931 11.7425 -80.1000 TD 30 -1 2 297
1931316N12281 1931 55 NA CS NOT_NAMED 1931-11-12 18:00:00 TS 11.8000 -80.2000 30 hurdat_atl main 263 263 O_____________ hurdat_atl AL121931 11.8000 -80.2000 TD 30 -1 3 302
1931316N12281 1931 55 NA CS NOT_NAMED 1931-11-12 21:00:00 TS 11.8925 -80.3425 main 276 276 P_____________ AL121931 11.8925 -80.3425 TD 32 -1 4 304
1931316N12281 1931 55 NA CS NOT_NAMED 1931-11-13 00:00:00 TS 12.0000 -80.5000 35 hurdat_atl main 293 293 O_____________ hurdat_atl AL121931 12.0000 -80.5000 TS 35 0 4 303
1931316N12281 1931 55 NA CS NOT_NAMED 1931-11-13 03:00:00 TS 12.0925 -80.6575 main 306 294 P_____________ AL121931 12.0925 -80.6575 TS 35 0 4 304
1931316N12281 1931 55 NA CS NOT_NAMED 1931-11-13 06:00:00 TS 12.2000 -80.8000 35 hurdat_atl main 294 282 O_____________ hurdat_atl AL121931 12.2000 -80.8000 TS 35 0 3 314
1931316N12281 1931 55 NA CS NOT_NAMED 1931-11-13 09:00:00 TS 12.3275 -80.9075 main 282 271 P_____________ AL121931 12.3275 -80.9075 TS 35 0 4 327
1931316N12281 1931 55 NA CS NOT_NAMED 1931-11-13 12:00:00 TS 12.5000 -81.0000 35 hurdat_atl main 271 260 O_____________ hurdat_atl AL121931 12.5000 -81.0000 TS 35 0 4 335
1931316N12281 1931 55 NA CS NOT_NAMED 1931-11-13 15:00:00 TS 12.7275 -81.1000 main 260 249 P_____________ AL121931 12.7275 -81.1000 TS 35 0 5 339
1931316N12281 1931 55 NA CS NOT_NAMED 1931-11-13 18:00:00 TS 13.0000 -81.2000 35 hurdat_atl main 249 233 O_____________ hurdat_atl AL121931 13.0000 -81.2000 TS 35 0 6 341
1931316N12281 1931 55 NA CS NOT_NAMED 1931-11-13 21:00:00 TS 13.2850 -81.2926 main 233 209 P_____________ AL121931 13.2850 -81.2926 TS 37 0 6 342
1931316N12281 1931 55 NA CS NOT_NAMED 1931-11-14 00:00:00 TS 13.6000 -81.4000 40 hurdat_atl main 209 188 O_____________ hurdat_atl AL121931 13.6000 -81.4000 TS 40 0 7 340
1931316N12281 1931 55 NA CS NOT_NAMED 1931-11-14 03:00:00 TS 13.9425 -81.5425 main 188 161 P_____________ AL121931 13.9425 -81.5425 TS 40 0 8 337
1931316N12281 1931 55 NA CS NOT_NAMED 1931-11-14 06:00:00 TS 14.3000 -81.7000 40 hurdat_atl main 161 146 O_____________ hurdat_atl AL121931 14.3000 -81.7000 TS 40 0 8 338
1931316N12281 1931 55 NA CS NOT_NAMED 1931-11-14 09:00:00 TS 14.6650 -81.8425 main 143 118 P_____________ AL121931 14.6650 -81.8425 TS 42 0 8 337
1931316N12281 1931 55 NA CS NOT_NAMED 1931-11-14 12:00:00 TS 15.0000 -82.0000 45 hurdat_atl main 118 99 O_____________ hurdat_atl AL121931 15.0000 -82.0000 TS 45 0 7 331
1931316N12281 1931 55 NA CS NOT_NAMED 1931-11-14 15:00:00 TS 15.2650 -82.1851 main 102 87 P_____________ AL121931 15.2650 -82.1851 TS 45 0 6 322
1931316N12281 1931 55 NA CS NOT_NAMED 1931-11-14 18:00:00 TS 15.5000 -82.4000 45 hurdat_atl main 93 93 O_____________ hurdat_atl AL121931 15.5000 -82.4000 TS 45 0 6 319
1931316N12281 1931 55 NA CS NOT_NAMED 1931-11-14 21:00:00 TS 15.7499 -82.6276 main 94 92 P_____________ AL121931 15.7499 -82.6276 TS 42 0 7 316
1931316N12281 1931 55 NA CS NOT_NAMED 1931-11-15 00:00:00 TS 16.0000 -82.9000 40 hurdat_atl main 94 94 O_____________ hurdat_atl AL121931 16.0000 -82.9000 TS 40 0 8 311
1931316N12281 1931 55 NA CS NOT_NAMED 1931-11-15 03:00:00 TS 16.2499 -83.2201 main 102 101 P_____________ AL121931 16.2499 -83.2201 TS 40 0 8 307
1931316N12281 1931 55 NA CS NOT_NAMED 1931-11-15 06:00:00 TS 16.5000 -83.6000 40 hurdat_atl main 108 101 O_____________ hurdat_atl AL121931 16.5000 -83.6000 TS 40 0 9 303
1931316N12281 1931 55 NA CS NOT_NAMED 1931-11-15 09:00:00 TS 16.7499 -84.0201 main 105 105 P_____________ AL121931 16.7499 -84.0201 TS 37 0 10 300
1931316N12281 1931 55 NA CS NOT_NAMED 1931-11-15 12:00:00 TS 17.0000 -84.5000 35 hurdat_atl main 124 123 O_____________ hurdat_atl AL121931 17.0000 -84.5000 TS 35 0 11 298
1931316N12281 1931 55 NA CS NOT_NAMED 1931-11-15 15:00:00 TS 17.2498 -85.0202 main 145 145 P_____________ AL121931 17.2498 -85.0202 TS 35 0 12 295
1931316N12281 1931 55 NA CS NOT_NAMED 1931-11-15 18:00:00 TS 17.5000 -85.6000 35 hurdat_atl main 179 178 O_____________ hurdat_atl AL121931 17.5000 -85.6000 TS 35 0 13 294
1931316N12281 1931 55 NA CS NOT_NAMED 1931-11-15 21:00:00 TS 17.7498 -86.2202 main 178 97 P_____________ AL121931 17.7498 -86.2202 TS 35 0 13 292
1931316N12281 1931 55 NA CS NOT_NAMED 1931-11-16 00:00:00 TS 18.0000 -86.9000 35 hurdat_atl main 97 21 O_____________ hurdat_atl AL121931 18.0000 -86.9000 TS 35 0 14 290
1931316N12281 1931 55 NA CS NOT_NAMED 1931-11-16 03:00:00 TS 18.2498 -87.6277 main 21 0 P_____________ AL121931 18.2498 -87.6277 TS 32 -1 15 289
1931316N12281 1931 55 NA NA NOT_NAMED 1931-11-16 06:00:00 TS 18.5000 -88.4000 30 hurdat_atl main 0 0 O_____________ hurdat_atl AL121931 18.5000 -88.4000 TD 30 -1 16 289
1931316N12281 1931 55 NA NA NOT_NAMED 1931-11-16 09:00:00 TS 18.7496 -89.1778 main 0 0 P_____________ AL121931 18.7496 -89.1778 TD 27 -1 16 288
1931316N12281 1931 55 NA NA NOT_NAMED 1931-11-16 12:00:00 TS 19.0000 -90.0000 25 hurdat_atl main 0 0 O_____________ hurdat_atl AL121931 19.0000 -90.0000 TD 25 -1 17 287
1931316N12281 1931 55 NA GM NOT_NAMED 1931-11-16 15:00:00 TS 19.2510 -90.8819 main 10 10 P_____________ AL121931 19.2510 -90.8819 TD 25 -1 18 286
1931316N12281 1931 55 NA GM NOT_NAMED 1931-11-16 18:00:00 TS 19.5000 -91.8000 25 hurdat_atl main 74 O_____________ hurdat_atl AL121931 19.5000 -91.8000 TD 25 -1 18 286

About IBTrACS Database

This database is a web-friendly format of International Best Track Archive for Climate Stewardship (IBTrACS), a global best track data archive curated by NOAA dating back to 1842.

Updated: 2021-12-03